• Join FlightAware (Why Join?)
  • Login
  • US Flag 
08:27PM EDT


 

Airport Tracker/Info


-or-


 

Live Flight TrackerFlight Track Log ✈ LBQ611 ✈ 21-May-2012 ✈ KDAL - KCRP

Flight Track Log - Related Links

Times and Time Zones

All times are in EDT time to prevent confusion due to time zone crossing. See the LBQ611 flight status page for this flight to view local times or setup timezone preferences in your user account.

Time Position Orientation Groundspeed Altitude Reporting Facility
EDT Latitude Longitude Course Direction KTS MPH feet Rate Location/Type
08:59PM 32.8608 -96.8725 315° West 174 200 1,300  Level FAA TRACON SMA TRACON (SMA)
09:00PM 32.8836 -96.8997 305° West 190 219 3,100 2,520 Climbing FAA TRACON SMA TRACON (SMA)
09:00PM 32.9042 -96.9342 277° West 196 226 4,700 2,520 Climbing FAA TRACON SMA TRACON (SMA)
09:01PM 32.9083 -96.9769 222° Southwest 185 213 6,600 2,280 Climbing FAA TRACON SMA TRACON (SMA)
09:02PM 32.8833 -97.0042 187° South 239 275 7,800 2,040 Climbing FAA TRACON SMA TRACON (SMA)
09:02PM 32.8375 -97.0108 185° South 240 276 9,300 2,100 Climbing FAA TRACON SMA TRACON (SMA)
09:03PM 32.7897 -97.0161 184° South 250 288 10,600 1,980 Climbing FAA TRACON SMA TRACON (SMA)
09:04PM 32.7458 -97.0200 184° South 257 296 12,000 2,040 Climbing FAA TRACON SMA TRACON (SMA)
09:04PM 32.6953 -97.0242 183° South 264 304 13,300 1,740 Climbing FAA TRACON SMA TRACON (SMA)
09:05PM 32.6417 -97.0281 184° South 281 323 14,300 1,440 Climbing FAA TRACON SMA TRACON (SMA)
09:06PM 32.5919 -97.0325 184° South 292 336 15,300 1,440 Climbing FAA TRACON SMA TRACON (SMA)
09:06PM 32.5342 -97.0369 184° South 301 346 16,300 1,560 Climbing FAA TRACON SMA TRACON (SMA)
09:07PM 32.4753 -97.0417 184° South 306 352 17,400 1,440 Climbing FAA TRACON SMA TRACON (SMA)
09:08PM 32.4222 -97.0461 183° South 309 356 18,200 1,320 Climbing FAA TRACON SMA TRACON (SMA)
09:08PM 32.3617 -97.0500 184° South 315 362 19,200 1,500 Climbing FAA TRACON SMA TRACON (SMA)
09:09PM 32.3006 -97.0556 183° South 320 368 20,300 1,500 Climbing FAA TRACON SMA TRACON (SMA)
09:10PM 32.2453 -97.0589 180° South 322 371 21,200 1,380 Climbing FAA TRACON SMA TRACON (SMA)
09:10PM 32.1831 -97.0589 182° South 324 373 22,200 1,500 Climbing FAA TRACON SMA TRACON (SMA)
09:11PM 32.1208 -97.0617 182° South 322 371 23,300 1,500 Climbing FAA TRACON SMA TRACON (SMA)
09:12PM 32.0589 -97.0644 180° South 324 373 24,300 1,320 Climbing FAA TRACON SMA TRACON (SMA)
09:12PM 32.0028 -97.0642 181° South 328 377 25,100 1,200 Climbing FAA TRACON SMA TRACON (SMA)
09:13PM 31.9386 -97.0656 183° South 331 381 26,000 1,260 Climbing FAA TRACON SMA TRACON (SMA)
09:15PM 31.7850 -97.0761 180° South 327 376 28,200 1,200 Climbing Fort Worth Center
09:16PM 31.6889 -97.0764 182° South 332 382 29,400 1,200 Climbing Fort Worth Center
09:17PM 31.5600 -97.0822 183° South 358 412 30,900 1,020 Climbing Houston Center
09:18PM 31.4703 -97.0872 187° South 363 418 31,800 1,020 Climbing Houston Center
09:19PM 31.3739 -97.1014 186° South 363 418 33,000 1,080 Climbing Houston Center
09:20PM 31.2753 -97.1128 185° South 356 410 34,000 480 Climbing Houston Center
09:21PM 31.1706 -97.1242 185° South 370 426 34,000  Level Houston Center
09:22PM 31.0617 -97.1350 185° South 387 445 34,000  Level Houston Center
09:23PM 30.9339 -97.1475 185° South 411 473 34,000  Level Houston Center
09:24PM 30.8147 -97.1603 187° South 436 502 34,000  Level Houston Center
09:25PM 30.7014 -97.1758 186° South 421 484 34,000  Level Houston Center
09:26PM 30.5881 -97.1889 187° South 415 478 34,000  Level Houston Center
09:27PM 30.4750 -97.2044 185° South 415 478 34,000  Level Houston Center
09:28PM 30.3700 -97.2156 185° South 409 471 34,000  Level Houston Center
09:29PM 30.2592 -97.2264 185° South 414 476 34,000  Level Houston Center
09:30PM 30.1417 -97.2392 187° South 414 476 34,000  Level Houston Center
09:31PM 30.0325 -97.2547 186° South 406 467 34,000  Level Houston Center
09:32PM 29.9214 -97.2678 186° South 406 467 34,000  Level Houston Center
09:33PM 29.8083 -97.2808 186° South 411 473 34,000  Level Houston Center
09:34PM 29.6931 -97.2939 186° South 411 473 34,000  Level Houston Center
09:35PM 29.5819 -97.3069 186° South 411 473 34,000  Level Houston Center
09:36PM 29.4686 -97.3197 186° South 411 473 34,000 -240 Level Houston Center
09:37PM 29.3556 -97.3328 186° South 411 473 33,600 -480 Descending Houston Center
09:38PM 29.2400 -97.3456 185° South 411 473 33,100 -600 Descending Houston Center
09:39PM 29.1247 -97.3581 186° South 411 473 32,500 -840 Descending Houston Center
09:40PM 29.0094 -97.3708 185° South 417 480 31,500 -1,980 Descending Houston Center
09:41PM 28.8817 -97.3831 185° South 424 488 28,600 -2,880 Descending Houston Center
09:42PM 28.7686 -97.3936 188° South 424 488 25,800 -2,820 Descending Houston Center
09:43PM 28.6550 -97.4111 184° South 424 488 23,100 -2,760 Descending Houston Center
09:44PM 28.5503 -97.4194 185° South 410 472 20,300 -3,000 Descending Houston Center
09:45PM 28.4436 -97.4303 188° South 374 430 17,100 -3,180 Descending Houston Center
09:46PM 28.3342 -97.4481 193° South 348 400 13,700 -2,880 Descending Houston Center
09:47PM 28.2519 -97.4694 194° South 332 382 11,300 -2,460 Descending Houston Center
09:48PM 28.1739 -97.4911 193° South 338 389 9,100 -2,220 Descending Houston Center
09:49PM 28.0936 -97.5128 193° South 317 365 7,000 -2,100 Descending Houston Center
09:50PM 28.0133 -97.5342 186° South 305 351 4,900 -1,800 Descending Houston Center
09:51PM 27.9356 -97.5442 184° South 305 351 3,500 -1,080 Descending Houston Center
09:52PM 27.8686 -97.5500 183° South 288 331 2,800 -1,200 Descending Houston Center
09:53PM 27.8267 -97.5525 183° South 239 275 1,200 -900 Descending Houston Center
09:54PM 27.7681 -97.5561 183° South 228 262 1,000 -240 Descending Houston Center